sensor_id;sensor_type;location;lat;lon;timestamp;pressure;altitude;pressure_sealevel;temperature;humidity
58092;BME280;43896;48.178;11.578;2023-06-10T00:00:43;95401.50;;;18.56;54.35
58092;BME280;43896;48.178;11.578;2023-06-10T00:03:09;95415.22;;;18.34;55.64
58092;BME280;43896;48.178;11.578;2023-06-10T00:05:35;95437.69;;;18.64;55.18
58092;BME280;43896;48.178;11.578;2023-06-10T00:08:02;95478.00;;;19.18;54.43
58092;BME280;43896;48.178;11.578;2023-06-10T00:10:33;95470.56;;;19.01;54.84
58092;BME280;43896;48.178;11.578;2023-06-10T00:13:00;95412.44;;;18.23;55.94
58092;BME280;43896;48.178;11.578;2023-06-10T00:15:26;95433.66;;;18.80;55.68
58092;BME280;43896;48.178;11.578;2023-06-10T00:17:51;95423.16;;;18.60;55.57
58092;BME280;43896;48.178;11.578;2023-06-10T00:20:20;95417.34;;;18.69;55.45
58092;BME280;43896;48.178;11.578;2023-06-10T00:22:46;95459.97;;;18.69;55.80
58092;BME280;43896;48.178;11.578;2023-06-10T00:25:13;95405.59;;;18.59;55.31
58092;BME280;43896;48.178;11.578;2023-06-10T00:27:39;95467.38;;;18.67;56.25
58092;BME280;43896;48.178;11.578;2023-06-10T00:30:05;95425.88;;;18.53;55.93
58092;BME280;43896;48.178;11.578;2023-06-10T00:32:33;95407.91;;;18.23;56.79
58092;BME280;43896;48.178;11.578;2023-06-10T00:34:58;95400.47;;;18.32;56.61
58092;BME280;43896;48.178;11.578;2023-06-10T00:37:23;95413.44;;;18.22;56.87
58092;BME280;43896;48.178;11.578;2023-06-10T00:39:49;95430.34;;;18.34;57.07
58092;BME280;43896;48.178;11.578;2023-06-10T00:42:14;95454.75;;;18.31;57.77
58092;BME280;43896;48.178;11.578;2023-06-10T00:44:39;95441.59;;;18.11;58.30
58092;BME280;43896;48.178;11.578;2023-06-10T00:47:05;95439.31;;;17.76;59.20
58092;BME280;43896;48.178;11.578;2023-06-10T00:49:32;95482.13;;;18.06;59.07
58092;BME280;43896;48.178;11.578;2023-06-10T00:51:57;95496.59;;;18.17;59.03
58092;BME280;43896;48.178;11.578;2023-06-10T00:54:23;95493.06;;;18.30;58.73
58092;BME280;43896;48.178;11.578;2023-06-10T00:56:49;95489.28;;;18.12;59.72
58092;BME280;43896;48.178;11.578;2023-06-10T00:59:15;95474.94;;;18.07;59.72
58092;BME280;43896;48.178;11.578;2023-06-10T01:01:41;95401.97;;;17.57;60.18
58092;BME280;43896;48.178;11.578;2023-06-10T01:04:08;95463.81;;;17.91;60.10
58092;BME280;43896;48.178;11.578;2023-06-10T01:06:41;95483.34;;;18.42;58.69
58092;BME280;43896;48.178;11.578;2023-06-10T01:12:02;95469.75;;;18.50;58.32
58092;BME280;43896;48.178;11.578;2023-06-10T01:14:33;95434.75;;;17.83;59.66
58092;BME280;43896;48.178;11.578;2023-06-10T01:16:58;95427.19;;;17.87;59.37
58092;BME280;43896;48.178;11.578;2023-06-10T01:19:25;95399.00;;;17.72;59.64
58092;BME280;43896;48.178;11.578;2023-06-10T01:21:51;95419.31;;;17.60;59.88
58092;BME280;43896;48.178;11.578;2023-06-10T01:24:16;95464.94;;;18.34;59.32
58092;BME280;43896;48.178;11.578;2023-06-10T01:26:43;95479.53;;;18.31;59.15
58092;BME280;43896;48.178;11.578;2023-06-10T01:29:33;95426.88;;;18.02;58.93
58092;BME280;43896;48.178;11.578;2023-06-10T01:32:17;95443.97;;;17.87;60.08
58092;BME280;43896;48.178;11.578;2023-06-10T01:34:44;95427.50;;;17.58;60.68
58092;BME280;43896;48.178;11.578;2023-06-10T01:37:13;95481.66;;;18.16;60.04
58092;BME280;43896;48.178;11.578;2023-06-10T01:39:40;95500.41;;;18.34;59.55
58092;BME280;43896;48.178;11.578;2023-06-10T01:42:08;95485.56;;;18.45;59.25
58092;BME280;43896;48.178;11.578;2023-06-10T01:44:33;95419.53;;;18.04;59.13
58092;BME280;43896;48.178;11.578;2023-06-10T01:46:59;95453.53;;;18.27;59.23
58092;BME280;43896;48.178;11.578;2023-06-10T01:49:24;95427.13;;;18.00;59.51
58092;BME280;43896;48.178;11.578;2023-06-10T01:51:51;95498.28;;;18.43;59.25
58092;BME280;43896;48.178;11.578;2023-06-10T01:54:16;95429.34;;;18.03;59.56
58092;BME280;43896;48.178;11.578;2023-06-10T01:56:42;95449.19;;;18.07;59.76
58092;BME280;43896;48.178;11.578;2023-06-10T01:59:07;95454.16;;;17.97;60.04
58092;BME280;43896;48.178;11.578;2023-06-10T02:01:33;95452.66;;;18.08;60.27
58092;BME280;43896;48.178;11.578;2023-06-10T02:03:58;95433.50;;;17.92;59.57
58092;BME280;43896;48.178;11.578;2023-06-10T02:06:24;95491.81;;;17.42;62.82
58092;BME280;43896;48.178;11.578;2023-06-10T02:08:49;95452.47;;;17.57;62.06
58092;BME280;43896;48.178;11.578;2023-06-10T02:11:15;95433.03;;;17.57;61.80
58092;BME280;43896;48.178;11.578;2023-06-10T02:13:40;95413.78;;;17.23;62.16
58092;BME280;43896;48.178;11.578;2023-06-10T02:16:05;95468.50;;;17.31;63.17
58092;BME280;43896;48.178;11.578;2023-06-10T02:18:31;95457.81;;;17.57;62.25
58092;BME280;43896;48.178;11.578;2023-06-10T02:20:56;95444.28;;;17.07;63.31
58092;BME280;43896;48.178;11.578;2023-06-10T02:23:22;95452.13;;;17.40;62.62
58092;BME280;43896;48.178;11.578;2023-06-10T02:25:48;95451.81;;;17.03;63.77
58092;BME280;43896;48.178;11.578;2023-06-10T02:28:13;95448.34;;;17.03;63.66
58092;BME280;43896;48.178;11.578;2023-06-10T02:30:40;95439.09;;;17.25;63.03
58092;BME280;43896;48.178;11.578;2023-06-10T02:33:06;95459.03;;;17.48;62.57
58092;BME280;43896;48.178;11.578;2023-06-10T02:35:35;95444.69;;;17.11;63.70
58092;BME280;43896;48.178;11.578;2023-06-10T02:38:01;95446.53;;;16.83;64.67
58092;BME280;43896;48.178;11.578;2023-06-10T02:40:26;95457.47;;;17.34;63.76
58092;BME280;43896;48.178;11.578;2023-06-10T02:42:51;95455.16;;;17.51;63.05
58092;BME280;43896;48.178;11.578;2023-06-10T02:45:17;95437.00;;;17.41;62.54
58092;BME280;43896;48.178;11.578;2023-06-10T02:47:42;95462.88;;;16.54;65.99
58092;BME280;43896;48.178;11.578;2023-06-10T02:50:08;95430.22;;;16.46;66.11
58092;BME280;43896;48.178;11.578;2023-06-10T02:52:33;95436.34;;;16.34;65.97
58092;BME280;43896;48.178;11.578;2023-06-10T02:54:58;95477.75;;;16.01;68.85
58092;BME280;43896;48.178;11.578;2023-06-10T02:57:24;95453.66;;;15.41;70.51
58092;BME280;43896;48.178;11.578;2023-06-10T02:59:49;95477.72;;;15.40;71.21
58092;BME280;43896;48.178;11.578;2023-06-10T03:02:16;95416.66;;;15.13;71.30
58092;BME280;43896;48.178;11.578;2023-06-10T03:04:41;95447.16;;;15.50;70.61
58092;BME280;43896;48.178;11.578;2023-06-10T03:07:08;95506.09;;;15.94;70.52
58092;BME280;43896;48.178;11.578;2023-06-10T03:09:36;95425.97;;;15.50;69.41
58092;BME280;43896;48.178;11.578;2023-06-10T03:12:02;95505.22;;;15.80;70.39
58092;BME280;43896;48.178;11.578;2023-06-10T03:14:28;95441.69;;;15.10;71.81
58092;BME280;43896;48.178;11.578;2023-06-10T03:16:53;95530.44;;;15.69;71.77
58092;BME280;43896;48.178;11.578;2023-06-10T03:19:19;95477.28;;;15.36;71.48
58092;BME280;43896;48.178;11.578;2023-06-10T03:21:49;95530.03;;;15.72;71.19
58092;BME280;43896;48.178;11.578;2023-06-10T03:24:20;95455.78;;;15.17;71.49
58092;BME280;43896;48.178;11.578;2023-06-10T03:26:45;95453.03;;;15.87;68.92
58092;BME280;43896;48.178;11.578;2023-06-10T03:29:11;95470.41;;;15.48;70.55
58092;BME280;43896;48.178;11.578;2023-06-10T03:31:36;95492.72;;;15.74;70.02
58092;BME280;43896;48.178;11.578;2023-06-10T03:34:02;95490.28;;;15.72;70.19
58092;BME280;43896;48.178;11.578;2023-06-10T03:36:27;95470.59;;;15.47;70.70
58092;BME280;43896;48.178;11.578;2023-06-10T03:38:54;95474.38;;;15.72;69.96
58092;BME280;43896;48.178;11.578;2023-06-10T03:41:22;95517.41;;;15.68;70.68
58092;BME280;43896;48.178;11.578;2023-06-10T03:43:48;95532.00;;;15.92;70.63
58092;BME280;43896;48.178;11.578;2023-06-10T03:46:16;95452.81;;;15.34;70.45
58092;BME280;43896;48.178;11.578;2023-06-10T03:48:42;95447.97;;;15.99;68.29
58092;BME280;43896;48.178;11.578;2023-06-10T03:51:08;95494.13;;;16.58;66.89
58092;BME280;43896;48.178;11.578;2023-06-10T03:53:33;95502.94;;;16.85;66.16
58092;BME280;43896;48.178;11.578;2023-06-10T03:55:58;95530.06;;;16.47;68.25
58092;BME280;43896;48.178;11.578;2023-06-10T03:58:24;95550.28;;;16.48;68.40
58092;BME280;43896;48.178;11.578;2023-06-10T04:00:49;95505.56;;;16.39;67.91
58092;BME280;43896;48.178;11.578;2023-06-10T04:03:15;95480.88;;;16.72;66.82
58092;BME280;43896;48.178;11.578;2023-06-10T04:05:40;95509.41;;;16.29;68.89
58092;BME280;43896;48.178;11.578;2023-06-10T04:08:09;95492.44;;;15.55;71.27
58092;BME280;43896;48.178;11.578;2023-06-10T04:10:34;95559.19;;;16.07;71.82
58092;BME280;43896;48.178;11.578;2023-06-10T04:13:00;95537.13;;;16.07;70.82
58092;BME280;43896;48.178;11.578;2023-06-10T04:15:25;95542.34;;;16.75;68.49
58092;BME280;43896;48.178;11.578;2023-06-10T04:17:51;95473.91;;;16.77;67.17
58092;BME280;43896;48.178;11.578;2023-06-10T04:20:16;95495.56;;;17.08;66.39
58092;BME280;43896;48.178;11.578;2023-06-10T04:22:42;95494.34;;;16.70;67.79
58092;BME280;43896;48.178;11.578;2023-06-10T04:25:09;95489.84;;;16.64;68.28
58092;BME280;43896;48.178;11.578;2023-06-10T04:27:35;95500.91;;;16.94;67.30
58092;BME280;43896;48.178;11.578;2023-06-10T04:30:00;95525.81;;;17.06;67.03
58092;BME280;43896;48.178;11.578;2023-06-10T04:32:26;95513.72;;;16.64;68.46
58092;BME280;43896;48.178;11.578;2023-06-10T04:34:51;95510.69;;;16.67;68.67
58092;BME280;43896;48.178;11.578;2023-06-10T04:37:17;95492.13;;;16.94;67.81
58092;BME280;43896;48.178;11.578;2023-06-10T04:39:43;95553.56;;;17.44;67.25
58092;BME280;43896;48.178;11.578;2023-06-10T04:42:08;95556.06;;;17.05;68.52
58092;BME280;43896;48.178;11.578;2023-06-10T04:44:34;95535.81;;;16.71;69.17
58092;BME280;43896;48.178;11.578;2023-06-10T04:46:59;95576.28;;;16.93;69.34
58092;BME280;43896;48.178;11.578;2023-06-10T04:49:24;95535.22;;;16.96;68.54
58092;BME280;43896;48.178;11.578;2023-06-10T04:51:50;95572.38;;;17.22;69.14
58092;BME280;43896;48.178;11.578;2023-06-10T04:54:16;95520.44;;;16.40;70.04
58092;BME280;43896;48.178;11.578;2023-06-10T04:56:42;95580.56;;;16.87;70.22
58092;BME280;43896;48.178;11.578;2023-06-10T04:59:07;95520.47;;;16.46;70.59
58092;BME280;43896;48.178;11.578;2023-06-10T05:01:32;95519.28;;;17.09;68.50
58092;BME280;43896;48.178;11.578;2023-06-10T05:03:58;95525.19;;;16.71;69.64
58092;BME280;43896;48.178;11.578;2023-06-10T05:06:23;95527.22;;;16.69;69.64
58092;BME280;43896;48.178;11.578;2023-06-10T05:08:49;95543.34;;;16.81;70.00
58092;BME280;43896;48.178;11.578;2023-06-10T05:11:14;95519.66;;;16.39;71.18
58092;BME280;43896;48.178;11.578;2023-06-10T05:13:41;95527.41;;;16.47;71.60
58092;BME280;43896;48.178;11.578;2023-06-10T05:16:07;95504.50;;;16.33;71.28
58092;BME280;43896;48.178;11.578;2023-06-10T05:18:33;95574.41;;;16.80;71.48
58092;BME280;43896;48.178;11.578;2023-06-10T05:20:58;95513.53;;;16.79;70.20
58092;BME280;43896;48.178;11.578;2023-06-10T05:23:24;95511.13;;;16.84;70.47
58092;BME280;43896;48.178;11.578;2023-06-10T05:25:49;95568.63;;;17.63;68.85
58092;BME280;43896;48.178;11.578;2023-06-10T05:28:14;95533.25;;;17.63;68.31
58092;BME280;43896;48.178;11.578;2023-06-10T05:30:40;95571.16;;;17.32;70.45
58092;BME280;43896;48.178;11.578;2023-06-10T05:33:05;95526.78;;;17.32;69.69
58092;BME280;43896;48.178;11.578;2023-06-10T05:35:31;95551.75;;;17.24;70.42
58092;BME280;43896;48.178;11.578;2023-06-10T05:37:56;95550.75;;;16.99;71.98
58092;BME280;43896;48.178;11.578;2023-06-10T05:40:21;95568.28;;;17.47;70.58
58092;BME280;43896;48.178;11.578;2023-06-10T05:42:47;95576.41;;;17.58;70.36
58092;BME280;43896;48.178;11.578;2023-06-10T05:45:12;95571.97;;;17.25;70.85
58092;BME280;43896;48.178;11.578;2023-06-10T05:47:38;95579.34;;;17.37;71.32
58092;BME280;43896;48.178;11.578;2023-06-10T05:50:03;95565.72;;;17.78;69.52
58092;BME280;43896;48.178;11.578;2023-06-10T05:52:35;95584.56;;;17.77;69.91
58092;BME280;43896;48.178;11.578;2023-06-10T05:55:04;95576.78;;;17.69;69.88
58092;BME280;43896;48.178;11.578;2023-06-10T05:57:30;95567.81;;;17.70;69.79
58092;BME280;43896;48.178;11.578;2023-06-10T05:59:56;95561.72;;;17.56;70.06
58092;BME280;43896;48.178;11.578;2023-06-10T06:02:21;95569.69;;;17.49;69.92
58092;BME280;43896;48.178;11.578;2023-06-10T06:04:46;95576.00;;;17.61;69.74
58092;BME280;43896;48.178;11.578;2023-06-10T06:07:12;95575.97;;;17.75;69.74
58092;BME280;43896;48.178;11.578;2023-06-10T06:09:37;95576.06;;;18.13;68.49
58092;BME280;43896;48.178;11.578;2023-06-10T06:12:03;95559.50;;;18.05;68.57
58092;BME280;43896;48.178;11.578;2023-06-10T06:14:30;95564.06;;;17.84;69.60
58092;BME280;43896;48.178;11.578;2023-06-10T06:16:56;95576.75;;;17.95;69.15
58092;BME280;43896;48.178;11.578;2023-06-10T06:19:21;95566.94;;;17.83;68.89
58092;BME280;43896;48.178;11.578;2023-06-10T06:21:46;95559.22;;;17.74;68.74
58092;BME280;43896;48.178;11.578;2023-06-10T06:24:12;95573.09;;;17.83;68.64
58092;BME280;43896;48.178;11.578;2023-06-10T06:26:37;95590.28;;;17.87;68.90
58092;BME280;43896;48.178;11.578;2023-06-10T06:29:02;95580.03;;;17.84;69.20
58092;BME280;43896;48.178;11.578;2023-06-10T06:31:27;95581.19;;;18.08;68.25
58092;BME280;43896;48.178;11.578;2023-06-10T06:33:53;95586.00;;;17.73;69.18
58092;BME280;43896;48.178;11.578;2023-06-10T06:36:18;95593.13;;;17.92;69.45
58092;BME280;43896;48.178;11.578;2023-06-10T06:38:43;95590.31;;;18.64;67.21
58092;BME280;43896;48.178;11.578;2023-06-10T06:41:08;95585.72;;;18.85;66.35
58092;BME280;43896;48.178;11.578;2023-06-10T06:43:34;95586.53;;;18.85;66.98
58092;BME280;43896;48.178;11.578;2023-06-10T06:45:59;95585.84;;;18.97;65.94
58092;BME280;43896;48.178;11.578;2023-06-10T06:48:25;95574.44;;;19.08;65.18
58092;BME280;43896;48.178;11.578;2023-06-10T06:50:50;95580.00;;;19.06;65.86
58092;BME280;43896;48.178;11.578;2023-06-10T06:53:15;95582.06;;;19.04;66.06
58092;BME280;43896;48.178;11.578;2023-06-10T06:55:41;95577.16;;;19.26;65.66
58092;BME280;43896;48.178;11.578;2023-06-10T06:58:06;95574.25;;;18.78;66.17
58092;BME280;43896;48.178;11.578;2023-06-10T07:00:32;95580.59;;;18.77;65.98
58092;BME280;43896;48.178;11.578;2023-06-10T07:02:58;95589.25;;;18.72;66.26
58092;BME280;43896;48.178;11.578;2023-06-10T07:05:24;95599.19;;;18.90;65.49
58092;BME280;43896;48.178;11.578;2023-06-10T07:07:52;95579.41;;;19.04;64.66
58092;BME280;43896;48.178;11.578;2023-06-10T07:10:21;95583.06;;;19.10;64.13
58092;BME280;43896;48.178;11.578;2023-06-10T07:12:47;95589.94;;;18.92;64.70
58092;BME280;43896;48.178;11.578;2023-06-10T07:15:12;95605.00;;;19.30;64.02
58092;BME280;43896;48.178;11.578;2023-06-10T07:17:38;95606.16;;;19.16;64.11
58092;BME280;43896;48.178;11.578;2023-06-10T07:20:03;95602.22;;;19.25;64.12
58092;BME280;43896;48.178;11.578;2023-06-10T07:22:29;95593.00;;;19.21;63.68
58092;BME280;43896;48.178;11.578;2023-06-10T07:24:54;95589.75;;;19.19;63.49
58092;BME280;43896;48.178;11.578;2023-06-10T07:27:20;95596.19;;;19.55;62.70
58092;BME280;43896;48.178;11.578;2023-06-10T07:29:46;95587.72;;;19.40;62.98
58092;BME280;43896;48.178;11.578;2023-06-10T07:32:11;95593.03;;;19.65;63.73
58092;BME280;43896;48.178;11.578;2023-06-10T07:34:36;95606.91;;;20.11;62.09
58092;BME280;43896;48.178;11.578;2023-06-10T07:37:02;95594.00;;;20.08;61.47
58092;BME280;43896;48.178;11.578;2023-06-10T07:39:27;95590.69;;;20.42;60.05
58092;BME280;43896;48.178;11.578;2023-06-10T07:41:52;95598.78;;;20.54;60.57
58092;BME280;43896;48.178;11.578;2023-06-10T07:44:19;95598.94;;;20.41;60.81
58092;BME280;43896;48.178;11.578;2023-06-10T07:46:44;95594.22;;;20.73;59.74
58092;BME280;43896;48.178;11.578;2023-06-10T07:49:10;95591.66;;;20.90;59.14
58092;BME280;43896;48.178;11.578;2023-06-10T07:51:35;95591.72;;;21.14;58.67
58092;BME280;43896;48.178;11.578;2023-06-10T07:54:01;95591.75;;;21.26;57.22
58092;BME280;43896;48.178;11.578;2023-06-10T07:56:27;95587.75;;;20.93;57.69
58092;BME280;43896;48.178;11.578;2023-06-10T07:58:52;95573.81;;;21.14;57.66
58092;BME280;43896;48.178;11.578;2023-06-10T08:01:17;95588.94;;;21.09;57.62
58092;BME280;43896;48.178;11.578;2023-06-10T08:03:43;95588.22;;;21.02;57.41
58092;BME280;43896;48.178;11.578;2023-06-10T08:06:08;95585.00;;;21.23;57.50
58092;BME280;43896;48.178;11.578;2023-06-10T08:08:36;95589.63;;;21.16;57.55
58092;BME280;43896;48.178;11.578;2023-06-10T08:11:06;95576.03;;;21.29;57.75
58092;BME280;43896;48.178;11.578;2023-06-10T08:13:31;95592.44;;;21.45;56.16
58092;BME280;43896;48.178;11.578;2023-06-10T08:15:56;95589.03;;;21.97;55.05
58092;BME280;43896;48.178;11.578;2023-06-10T08:18:22;95597.19;;;21.90;55.59
58092;BME280;43896;48.178;11.578;2023-06-10T08:20:47;95600.50;;;21.80;57.35
58092;BME280;43896;48.178;11.578;2023-06-10T08:23:13;95586.66;;;21.60;55.39
58092;BME280;43896;48.178;11.578;2023-06-10T08:25:39;95582.09;;;21.84;55.91
58092;BME280;43896;48.178;11.578;2023-06-10T08:28:04;95591.34;;;22.28;54.00
58092;BME280;43896;48.178;11.578;2023-06-10T08:30:29;95586.19;;;22.39;54.52
58092;BME280;43896;48.178;11.578;2023-06-10T08:32:55;95592.34;;;22.39;53.13
58092;BME280;43896;48.178;11.578;2023-06-10T08:35:20;95596.81;;;22.62;52.67
58092;BME280;43896;48.178;11.578;2023-06-10T08:37:47;95599.72;;;22.61;52.94
58092;BME280;43896;48.178;11.578;2023-06-10T08:40:12;95584.53;;;22.38;52.00
58092;BME280;43896;48.178;11.578;2023-06-10T08:42:49;95591.94;;;22.07;53.81
58092;BME280;43896;48.178;11.578;2023-06-10T08:45:18;95596.69;;;23.03;53.74
58092;BME280;43896;48.178;11.578;2023-06-10T08:47:49;95590.91;;;22.94;51.47
58092;BME280;43896;48.178;11.578;2023-06-10T08:50:17;95596.09;;;23.30;52.89
58092;BME280;43896;48.178;11.578;2023-06-10T08:52:44;95598.66;;;23.58;49.54
58092;BME280;43896;48.178;11.578;2023-06-10T08:55:15;95591.78;;;24.02;49.58
58092;BME280;43896;48.178;11.578;2023-06-10T08:57:45;95598.13;;;22.77;51.67
58092;BME280;43896;48.178;11.578;2023-06-10T09:00:12;95594.31;;;22.90;52.67
58092;BME280;43896;48.178;11.578;2023-06-10T09:02:38;95578.19;;;22.56;51.18
58092;BME280;43896;48.178;11.578;2023-06-10T09:05:03;95582.63;;;22.79;52.02
58092;BME280;43896;48.178;11.578;2023-06-10T09:07:30;95590.41;;;23.26;50.21
58092;BME280;43896;48.178;11.578;2023-06-10T09:10:02;95577.47;;;23.79;50.47
58092;BME280;43896;48.178;11.578;2023-06-10T09:12:33;95600.97;;;24.06;48.66
58092;BME280;43896;48.178;11.578;2023-06-10T09:14:59;95585.59;;;24.01;49.67
58092;BME280;43896;48.178;11.578;2023-06-10T09:17:24;95591.50;;;23.81;50.64
58092;BME280;43896;48.178;11.578;2023-06-10T09:19:52;95585.31;;;23.64;50.75
58092;BME280;43896;48.178;11.578;2023-06-10T09:22:19;95590.66;;;23.42;50.12
58092;BME280;43896;48.178;11.578;2023-06-10T09:24:46;95568.28;;;23.92;48.35
58092;BME280;43896;48.178;11.578;2023-06-10T09:27:11;95592.66;;;23.51;48.95
58092;BME280;43896;48.178;11.578;2023-06-10T09:29:54;95583.41;;;23.25;48.00
58092;BME280;43896;48.178;11.578;2023-06-10T09:32:20;95590.13;;;23.28;48.04
58092;BME280;43896;48.178;11.578;2023-06-10T09:34:47;95588.63;;;23.88;48.42
58092;BME280;43896;48.178;11.578;2023-06-10T09:37:12;95596.34;;;24.23;48.52
58092;BME280;43896;48.178;11.578;2023-06-10T09:39:39;95583.38;;;23.98;46.88
58092;BME280;43896;48.178;11.578;2023-06-10T09:42:18;95591.94;;;24.61;46.60
58092;BME280;43896;48.178;11.578;2023-06-10T09:44:52;95595.19;;;23.24;48.45
58092;BME280;43896;48.178;11.578;2023-06-10T09:47:21;95583.88;;;24.17;47.79
58092;BME280;43896;48.178;11.578;2023-06-10T09:49:48;95577.16;;;24.59;46.63
58092;BME280;43896;48.178;11.578;2023-06-10T09:52:14;95588.84;;;25.02;44.47
58092;BME280;43896;48.178;11.578;2023-06-10T09:54:39;95594.19;;;24.47;45.96
58092;BME280;43896;48.178;11.578;2023-06-10T09:57:07;95599.69;;;24.36;47.21
58092;BME280;43896;48.178;11.578;2023-06-10T09:59:34;95583.69;;;22.95;48.85
58092;BME280;43896;48.178;11.578;2023-06-10T10:02:00;95587.59;;;22.87;48.55
58092;BME280;43896;48.178;11.578;2023-06-10T10:04:26;95594.66;;;22.47;49.66
58092;BME280;43896;48.178;11.578;2023-06-10T10:06:52;95585.00;;;23.43;48.90
58092;BME280;43896;48.178;11.578;2023-06-10T10:09:17;95594.75;;;24.27;46.62
58092;BME280;43896;48.178;11.578;2023-06-10T10:11:44;95585.66;;;24.28;45.67
58092;BME280;43896;48.178;11.578;2023-06-10T10:14:09;95578.41;;;24.78;45.38
58092;BME280;43896;48.178;11.578;2023-06-10T10:16:41;95580.59;;;25.41;45.64
58092;BME280;43896;48.178;11.578;2023-06-10T10:19:23;95602.72;;;25.48;43.36
58092;BME280;43896;48.178;11.578;2023-06-10T10:22:01;95594.47;;;25.65;43.28
58092;BME280;43896;48.178;11.578;2023-06-10T10:24:38;95578.78;;;25.52;45.01
58092;BME280;43896;48.178;11.578;2023-06-10T10:27:12;95583.72;;;25.65;43.39
58092;BME280;43896;48.178;11.578;2023-06-10T10:29:40;95596.66;;;25.73;42.61
58092;BME280;43896;48.178;11.578;2023-06-10T10:32:07;95576.75;;;25.04;43.49
58092;BME280;43896;48.178;11.578;2023-06-10T10:34:45;95589.38;;;24.27;45.07
58092;BME280;43896;48.178;11.578;2023-06-10T10:37:13;95577.81;;;24.71;45.08
58092;BME280;43896;48.178;11.578;2023-06-10T10:39:39;95587.09;;;25.50;43.23
58092;BME280;43896;48.178;11.578;2023-06-10T10:42:05;95584.81;;;25.69;41.18
58092;BME280;43896;48.178;11.578;2023-06-10T10:44:34;95587.53;;;25.74;41.65
58092;BME280;43896;48.178;11.578;2023-06-10T10:47:02;95578.31;;;24.95;43.26
58092;BME280;43896;48.178;11.578;2023-06-10T10:49:30;95568.97;;;24.26;45.16
58092;BME280;43896;48.178;11.578;2023-06-10T10:51:59;95580.06;;;25.17;43.26
58092;BME280;43896;48.178;11.578;2023-06-10T10:54:35;95566.13;;;25.20;43.56
58092;BME280;43896;48.178;11.578;2023-06-10T10:57:14;95587.50;;;25.69;42.19
58092;BME280;43896;48.178;11.578;2023-06-10T10:59:58;95566.63;;;25.49;42.48
58092;BME280;43896;48.178;11.578;2023-06-10T11:02:33;95576.25;;;26.30;41.28
58092;BME280;43896;48.178;11.578;2023-06-10T11:05:00;95562.13;;;26.08;41.27
58092;BME280;43896;48.178;11.578;2023-06-10T11:07:25;95575.66;;;25.70;41.21
58092;BME280;43896;48.178;11.578;2023-06-10T11:09:59;95575.28;;;25.99;40.24
58092;BME280;43896;48.178;11.578;2023-06-10T11:15:13;95557.19;;;25.89;39.55
58092;BME280;43896;48.178;11.578;2023-06-10T11:26:18;95578.31;;;27.43;38.53
58092;BME280;43896;48.178;11.578;2023-06-10T11:31:24;95562.19;;;25.70;40.49
58092;BME280;43896;48.178;11.578;2023-06-10T11:33:52;95574.47;;;24.86;40.97
58092;BME280;43896;48.178;11.578;2023-06-10T11:36:18;95579.84;;;24.86;41.10
58092;BME280;43896;48.178;11.578;2023-06-10T11:38:44;95568.91;;;24.21;43.63
58092;BME280;43896;48.178;11.578;2023-06-10T11:41:11;95567.22;;;24.15;44.20
58092;BME280;43896;48.178;11.578;2023-06-10T11:43:37;95577.97;;;24.15;44.99
58092;BME280;43896;48.178;11.578;2023-06-10T11:46:02;95558.28;;;24.81;42.97
58092;BME280;43896;48.178;11.578;2023-06-10T11:48:28;95566.00;;;25.37;39.68
58092;BME280;43896;48.178;11.578;2023-06-10T11:50:56;95566.13;;;25.57;39.04
58092;BME280;43896;48.178;11.578;2023-06-10T11:53:21;95555.97;;;25.70;39.35
58092;BME280;43896;48.178;11.578;2023-06-10T11:55:49;95556.78;;;25.65;38.13
58092;BME280;43896;48.178;11.578;2023-06-10T11:58:18;95542.63;;;25.90;38.94
58092;BME280;43896;48.178;11.578;2023-06-10T12:00:55;95561.19;;;26.50;39.21
58092;BME280;43896;48.178;11.578;2023-06-10T12:03:24;95537.00;;;27.01;39.50
58092;BME280;43896;48.178;11.578;2023-06-10T12:06:03;95543.22;;;26.02;41.71
58092;BME280;43896;48.178;11.578;2023-06-10T12:08:29;95546.00;;;24.95;42.79
58092;BME280;43896;48.178;11.578;2023-06-10T12:10:56;95548.91;;;25.53;41.55
58092;BME280;43896;48.178;11.578;2023-06-10T12:13:26;95546.59;;;25.77;41.76
58092;BME280;43896;48.178;11.578;2023-06-10T12:15:52;95553.13;;;24.52;44.97
58092;BME280;43896;48.178;11.578;2023-06-10T12:20:44;95540.72;;;24.51;44.13
58092;BME280;43896;48.178;11.578;2023-06-10T12:23:10;95544.28;;;24.29;44.56
58092;BME280;43896;48.178;11.578;2023-06-10T12:25:36;95528.31;;;23.95;45.68
58092;BME280;43896;48.178;11.578;2023-06-10T12:28:05;95537.59;;;23.88;46.00
58092;BME280;43896;48.178;11.578;2023-06-10T12:30:31;95538.41;;;24.87;43.50
58092;BME280;43896;48.178;11.578;2023-06-10T12:32:56;95536.25;;;25.59;42.76
58092;BME280;43896;48.178;11.578;2023-06-10T12:35:24;95535.25;;;26.33;40.85
58092;BME280;43896;48.178;11.578;2023-06-10T12:38:02;95540.53;;;25.50;40.60
58092;BME280;43896;48.178;11.578;2023-06-10T12:40:37;95543.69;;;24.77;41.25
58092;BME280;43896;48.178;11.578;2023-06-10T12:43:05;95518.75;;;24.54;43.01
58092;BME280;43896;48.178;11.578;2023-06-10T12:45:34;95535.91;;;25.13;40.93
58092;BME280;43896;48.178;11.578;2023-06-10T12:50:38;95543.72;;;25.47;40.89
58092;BME280;43896;48.178;11.578;2023-06-10T12:53:04;95528.47;;;26.15;38.99
58092;BME280;43896;48.178;11.578;2023-06-10T12:55:30;95532.25;;;25.67;40.60
58092;BME280;43896;48.178;11.578;2023-06-10T12:57:55;95518.13;;;24.47;45.20
58092;BME280;43896;48.178;11.578;2023-06-10T13:00:22;95517.09;;;24.26;46.25
58092;BME280;43896;48.178;11.578;2023-06-10T13:02:50;95533.75;;;24.77;45.87
58092;BME280;43896;48.178;11.578;2023-06-10T13:05:17;95525.94;;;24.76;45.45
58092;BME280;43896;48.178;11.578;2023-06-10T13:07:43;95510.16;;;24.30;46.62
58092;BME280;43896;48.178;11.578;2023-06-10T13:10:09;95522.66;;;25.01;46.35